KRHV

Reid-Hillview of Santa Clara County Airport

San Jose, California, USA
METAR KRHV 230555Z 00000KT 10SM SCT040 10/07 A3031
Observed Flight Rules
Jan-23 @ 05:55 UTC (6 hours ago) Visual Flight Rules
Wind Visibility Clouds
Calm 10 miles
  • Scattered at 4,000' AGL
Temperatures Readings
Current 10°C / 50°F
Dewpoint 7°C / 45°F
Humidity 82%
Altimeter 30.31" Hg
Pressure 1026 hPa
Elevation 41
METAR KRHV 230555Z 00000KT 10SM SCT040 10/07 A3031
Observed Flight Rules
Jan-23 @ 05:55 UTC
(6 hours ago)
VFR
Wind Visibility
Calm 10 miles
Clouds
  • Scattered at 4,000' AGL
Temperature Dewpoint
10°C / 50°F 7°C / 45°F
Humidity Altimeter Pressure
82% 30.31" Hg 1026 hPa